createdAt,value
2023-05-10T00:04:13.821Z,68.38
2023-05-10T00:09:35.506Z,69.75
2023-05-10T00:15:45.019Z,70.39
2023-05-10T00:21:59.904Z,71.35
2023-05-10T00:28:24.721Z,71.16
2023-05-10T00:34:29.379Z,71.65
2023-05-10T00:40:05.803Z,72.47
2023-05-10T00:46:18.812Z,72.30
2023-05-10T00:52:14.301Z,72.84
2023-05-10T00:58:42.205Z,73.20
2023-05-10T01:04:50.920Z,73.73
2023-05-10T01:10:36.665Z,73.91
2023-05-10T01:16:14.675Z,73.71
2023-05-10T01:22:44.154Z,73.98
2023-05-10T01:29:20.670Z,74.64
2023-05-10T01:35:22.332Z,75.22
2023-05-10T01:41:24.366Z,75.38
2023-05-10T01:46:40.062Z,75.13
2023-05-10T01:52:48.123Z,76.11
2023-05-10T01:58:48.647Z,74.94
2023-05-10T02:04:58.429Z,74.98
2023-05-10T02:10:34.811Z,75.07
2023-05-10T02:16:27.105Z,74.92
2023-05-10T02:21:34.272Z,74.74
2023-05-10T02:27:39.033Z,74.93
2023-05-10T02:34:02.982Z,74.51
2023-05-10T02:39:44.745Z,74.14
2023-05-10T02:45:38.543Z,73.67
2023-05-10T02:51:17.218Z,73.67
2023-05-10T02:57:10.715Z,74.24
2023-05-10T03:02:21.802Z,74.19
2023-05-10T03:07:54.568Z,74.70
2023-05-10T03:13:37.938Z,74.85
2023-05-10T03:19:52.727Z,74.92
2023-05-10T03:26:07.543Z,75.03
2023-05-10T03:32:34.559Z,74.66
2023-05-10T03:39:00.440Z,75.41
2023-05-10T03:45:42.293Z,75.14
2023-05-10T03:52:16.025Z,74.69
2023-05-10T03:58:13.877Z,74.06
2023-05-10T04:04:38.538Z,73.88
2023-05-10T04:11:22.760Z,73.45
2023-05-10T04:17:48.752Z,72.71
2023-05-10T04:24:04.773Z,71.38
2023-05-10T04:30:42.930Z,70.34
2023-05-10T04:37:37.815Z,68.47
2023-05-10T04:43:54.844Z,65.67
2023-05-10T04:50:20.705Z,60.44
2023-05-10T04:56:28.582Z,54.53
2023-05-10T05:02:41.707Z,51.56
2023-05-10T05:08:55.722Z,49.19
2023-05-10T05:15:24.736Z,50.00
2023-05-10T05:21:55.543Z,51.32
2023-05-10T05:28:20.217Z,50.17
2023-05-10T05:34:49.859Z,49.47
2023-05-10T05:41:03.646Z,48.49
2023-05-10T05:47:28.450Z,49.10
2023-05-10T05:53:53.302Z,47.85
2023-05-10T06:00:11.038Z,46.66
2023-05-10T06:06:20.364Z,44.17
2023-05-10T06:12:44.412Z,45.47
2023-05-10T06:18:42.228Z,45.00
2023-05-10T06:24:40.315Z,43.54
2023-05-10T06:30:38.366Z,43.03
2023-05-10T06:36:03.550Z,42.78
2023-05-10T06:41:47.164Z,44.32
2023-05-10T06:47:31.205Z,42.84
2023-05-10T06:53:28.509Z,44.66
2023-05-10T06:59:25.753Z,40.69
2023-05-10T07:05:37.392Z,40.61
2023-05-10T07:11:41.620Z,41.58
2023-05-10T07:17:06.228Z,40.80
2023-05-10T07:23:05.893Z,40.56
2023-05-10T07:28:38.560Z,37.99
2023-05-10T07:34:38.447Z,38.05
2023-05-10T07:41:02.756Z,37.74
2023-05-10T07:47:20.876Z,37.96
2023-05-10T07:53:22.130Z,36.07
2023-05-10T07:59:19.252Z,32.95
2023-05-10T08:05:01.426Z,33.20
2023-05-10T08:10:39.411Z,33.63
2023-05-10T08:15:56.591Z,31.04
2023-05-10T08:21:52.701Z,29.42
2023-05-10T08:27:53.083Z,30.73
2023-05-10T08:33:46.599Z,30.43
2023-05-10T08:39:39.625Z,29.22
2023-05-10T08:45:48.942Z,29.46
2023-05-10T08:52:12.969Z,30.44
2023-05-10T08:57:38.869Z,32.24
2023-05-10T09:03:56.685Z,31.16
2023-05-10T09:09:22.768Z,30.57
2023-05-10T09:15:28.686Z,30.15
2023-05-10T09:28:47.349Z,30.66
2023-05-10T09:34:02.410Z,29.23
2023-05-10T09:39:31.963Z,29.48
2023-05-10T09:45:32.356Z,29.29
2023-05-10T09:51:56.095Z,29.03
2023-05-10T09:58:16.712Z,29.08
2023-05-10T10:04:42.297Z,28.49
2023-05-10T10:24:29.424Z,28.99
2023-05-10T10:30:27.498Z,28.58
2023-05-10T10:44:02.725Z,28.60
2023-05-10T10:50:30.825Z,28.99
2023-05-10T10:56:48.877Z,28.21
2023-05-10T11:02:43.334Z,28.56
2023-05-10T11:09:02.976Z,27.31
2023-05-10T11:14:41.417Z,28.18
2023-05-10T11:20:27.948Z,28.57
2023-05-10T11:26:24.826Z,30.64
2023-05-10T11:32:16.557Z,31.85
2023-05-10T11:38:05.361Z,31.41
2023-05-10T11:43:40.461Z,29.65
2023-05-10T11:49:08.034Z,31.29
2023-05-10T11:55:04.576Z,31.09
2023-05-10T12:00:28.432Z,30.61
2023-05-10T12:06:06.228Z,30.71
2023-05-10T12:11:19.123Z,31.92
2023-05-10T12:16:57.162Z,31.63
2023-05-10T12:22:13.848Z,31.36
2023-05-10T12:27:52.757Z,31.72
2023-05-10T12:33:30.854Z,31.31
2023-05-10T12:39:09.658Z,31.18
2023-05-10T12:44:24.077Z,31.27
2023-05-10T12:49:56.142Z,31.78
2023-05-10T12:55:17.129Z,31.47
2023-05-10T13:00:23.583Z,31.60
2023-05-10T13:05:34.823Z,31.72
2023-05-10T13:10:48.988Z,30.58
2023-05-10T13:16:51.568Z,31.30
2023-05-10T13:21:59.278Z,30.56
2023-05-10T13:27:19.042Z,30.72
2023-05-10T13:32:26.955Z,30.57
2023-05-10T13:37:36.686Z,31.18
2023-05-10T13:42:40.841Z,31.84
2023-05-10T13:47:44.538Z,30.97
2023-05-10T13:52:53.381Z,30.81
2023-05-10T13:57:57.299Z,30.71
2023-05-10T14:03:00.875Z,31.15
2023-05-10T14:08:05.320Z,31.72
2023-05-10T14:13:09.155Z,31.48
2023-05-10T14:18:12.770Z,30.98
2023-05-10T14:23:16.846Z,31.28
2023-05-10T14:28:20.558Z,31.36
2023-05-10T14:33:33.516Z,31.12
2023-05-10T14:38:37.190Z,31.48
2023-05-10T14:43:50.566Z,31.55
2023-05-10T14:48:55.132Z,31.30
2023-05-10T14:54:01.745Z,31.22
2023-05-10T14:59:05.336Z,31.86
2023-05-10T15:04:09.613Z,32.13
2023-05-10T15:09:13.631Z,31.81
2023-05-10T15:14:17.104Z,31.17
2023-05-10T15:19:21.767Z,31.90
2023-05-10T15:24:26.033Z,31.78
2023-05-10T15:29:35.786Z,32.66
2023-05-10T15:34:39.957Z,32.34
2023-05-10T15:39:44.067Z,32.29
2023-05-10T15:45:21.622Z,32.81
2023-05-10T15:50:25.478Z,32.97
2023-05-10T15:55:52.548Z,33.66
2023-05-10T16:00:56.172Z,32.63
2023-05-10T16:06:01.365Z,32.32
2023-05-10T16:11:05.613Z,32.84
2023-05-10T16:16:20.173Z,32.09
2023-05-10T16:21:34.480Z,33.25
2023-05-10T16:26:41.319Z,32.51
2023-05-10T16:31:45.440Z,32.94
2023-05-10T16:36:49.972Z,33.26
2023-05-10T16:41:59.782Z,32.69
2023-05-10T16:47:09.212Z,33.84
2023-05-10T16:52:13.414Z,33.76
2023-05-10T16:58:10.932Z,33.34
2023-05-10T17:03:22.672Z,34.27
2023-05-10T17:08:30.355Z,34.45
2023-05-10T17:14:20.323Z,34.52
2023-05-10T17:20:28.277Z,34.43
2023-05-10T17:25:42.310Z,35.10
2023-05-10T17:31:49.749Z,35.15
2023-05-10T17:37:57.653Z,35.69
2023-05-10T17:44:22.700Z,36.58
2023-05-10T17:50:46.219Z,36.71
2023-05-10T17:57:12.868Z,37.34
2023-05-10T18:03:10.604Z,38.51
2023-05-10T18:09:20.608Z,38.99
2023-05-10T18:15:29.963Z,39.46
2023-05-10T18:20:47.580Z,40.23
2023-05-10T18:26:09.353Z,39.98
2023-05-10T18:31:16.640Z,40.15
2023-05-10T18:37:20.392Z,40.26
2023-05-10T18:43:34.125Z,40.70
2023-05-10T18:49:06.673Z,41.38
2023-05-10T18:54:15.554Z,41.78
2023-05-10T18:59:20.675Z,42.40
2023-05-10T19:04:28.214Z,42.27
2023-05-10T19:09:37.510Z,42.75
2023-05-10T19:14:45.051Z,43.22
2023-05-10T19:19:49.269Z,43.66
2023-05-10T19:24:53.814Z,44.22
2023-05-10T19:30:02.282Z,44.17
2023-05-10T19:35:24.146Z,45.06
2023-05-10T19:40:28.124Z,44.97
2023-05-10T19:45:37.291Z,45.70
2023-05-10T19:50:40.780Z,45.69
2023-05-10T19:55:47.810Z,45.29
2023-05-10T20:01:08.115Z,45.75
2023-05-10T20:06:12.391Z,46.10
2023-05-10T20:11:16.241Z,47.12
2023-05-10T20:16:19.655Z,46.61
2023-05-10T20:21:24.048Z,47.02
2023-05-10T20:26:35.196Z,47.71
2023-05-10T20:31:39.111Z,48.05
2023-05-10T20:36:45.917Z,47.53
2023-05-10T20:41:49.725Z,48.00
2023-05-10T20:46:56.322Z,47.41
2023-05-10T20:51:59.874Z,48.48
2023-05-10T20:57:12.859Z,48.93
2023-05-10T21:02:18.885Z,48.95
2023-05-10T21:08:05.524Z,48.47
2023-05-10T21:13:41.890Z,50.52
2023-05-10T21:18:51.975Z,51.67
2023-05-10T21:23:58.488Z,50.99
2023-05-10T21:29:02.740Z,52.15
2023-05-10T21:34:09.921Z,51.79
2023-05-10T21:39:13.496Z,53.23
2023-05-10T21:44:26.936Z,53.57
2023-05-10T21:49:53.779Z,52.91
2023-05-10T21:55:57.973Z,54.70
2023-05-10T22:01:01.638Z,56.46
2023-05-10T22:06:08.672Z,56.50
2023-05-10T22:11:32.192Z,55.95
2023-05-10T22:16:35.861Z,57.42
2023-05-10T22:21:39.238Z,58.30
2023-05-10T22:26:47.786Z,57.75
2023-05-10T22:32:08.927Z,58.62
2023-05-10T22:37:34.935Z,58.35
2023-05-10T22:42:53.506Z,59.82
2023-05-10T22:47:56.751Z,61.25
2023-05-10T22:53:23.362Z,62.22
2023-05-10T22:58:30.180Z,62.75
2023-05-10T23:03:53.986Z,63.08
2023-05-10T23:08:57.655Z,63.51
2023-05-10T23:14:01.172Z,63.99
2023-05-10T23:19:09.704Z,64.41
2023-05-10T23:24:13.750Z,65.45
2023-05-10T23:29:26.414Z,65.71
2023-05-10T23:34:30.036Z,66.53
2023-05-10T23:39:34.097Z,67.29
2023-05-10T23:44:37.792Z,65.76
2023-05-10T23:49:46.947Z,65.18
2023-05-10T23:54:56.295Z,66.55
